Time;durP1;ratioP1;P1;durP2;ratioP2;P2;SDS_P1;SDS_P2;PMS_P1;PMS_P2;Temp;Humidity;BMP_temperature;BMP_pressure;BME280_temperature;BME280_humidity;BME280_pressure;Samples;Min_cycle;Max_cycle;Signal;HPM_P1;HPM_P2
2023/03/01 00:01:31;;;;;;;142.97;134.50;;;;;;;1.75;100.00;103157.84;4978733;28;20462;-46
2023/03/01 00:04:00;;;;;;;149.10;137.37;;;;;;;1.76;100.00;103167.44;4977526;28;20454;-44
2023/03/01 00:06:28;;;;;;;140.33;133.23;;;;;;;1.77;100.00;103158.59;4978459;28;20435;-44
2023/03/01 00:08:56;;;;;;;176.57;158.40;;;;;;;1.74;100.00;103150.00;4977581;28;20427;-47
2023/03/01 00:11:27;;;;;;;163.57;149.27;;;;;;;1.73;100.00;103153.59;4977443;28;20483;-44
2023/03/01 00:13:57;;;;;;;165.20;152.70;;;;;;;1.69;100.00;103147.66;4977518;28;20467;-46
2023/03/01 00:16:27;;;;;;;170.87;158.20;;;;;;;1.73;100.00;103143.06;4978310;28;20425;-44
2023/03/01 00:18:56;;;;;;;155.47;148.57;;;;;;;1.71;100.00;103148.41;4978294;28;20840;-44
2023/03/01 00:21:24;;;;;;;169.27;155.43;;;;;;;1.70;100.00;103156.38;4978262;28;20454;-45
2023/03/01 00:23:53;;;;;;;159.67;150.83;;;;;;;1.65;100.00;103136.44;4977126;28;20463;-45
2023/03/01 00:26:22;;;;;;;164.60;153.90;;;;;;;1.66;100.00;103138.13;4977848;28;20431;-45
2023/03/01 00:28:51;;;;;;;179.27;170.60;;;;;;;1.64;100.00;103147.03;4978327;28;20430;-44
2023/03/01 00:31:22;;;;;;;183.63;172.10;;;;;;;1.62;100.00;103141.84;4978631;28;20451;-49
2023/03/01 00:33:52;;;;;;;194.70;179.17;;;;;;;1.57;100.00;103150.91;4977676;28;20463;-45
2023/03/01 00:36:20;;;;;;;190.03;177.03;;;;;;;1.53;100.00;103157.25;4977641;28;20445;-45
2023/03/01 00:38:48;;;;;;;207.63;189.87;;;;;;;1.48;100.00;103152.25;4981397;28;20430;-45
2023/03/01 00:41:17;;;;;;;256.90;200.07;;;;;;;1.41;100.00;103156.09;4980866;28;20454;-48
2023/03/01 00:43:45;;;;;;;203.47;185.10;;;;;;;1.36;100.00;103152.03;4981376;28;20471;-45
2023/03/01 00:46:17;;;;;;;201.10;191.80;;;;;;;1.32;100.00;103155.72;4981670;28;20434;-47
2023/03/01 00:48:45;;;;;;;186.20;177.80;;;;;;;1.26;100.00;103164.78;4981564;28;20493;-44
2023/03/01 00:51:14;;;;;;;239.60;213.93;;;;;;;1.20;100.00;103162.47;4981092;28;20466;-44
2023/03/01 00:53:43;;;;;;;212.43;197.93;;;;;;;1.17;100.00;103167.88;4980858;28;20462;-47
2023/03/01 00:56:13;;;;;;;208.20;196.37;;;;;;;1.10;100.00;103159.47;4981443;28;20430;-44
2023/03/01 00:58:41;;;;;;;242.70;217.80;;;;;;;1.08;100.00;103163.06;4981958;28;20435;-44
2023/03/01 01:01:17;;;;;;;234.27;216.77;;;;;;;1.05;100.00;103163.22;4981213;28;20873;-46
2023/03/01 01:03:48;;;;;;;223.47;206.20;;;;;;;1.02;100.00;103164.22;4980235;28;20471;-44
2023/03/01 01:06:17;;;;;;;225.97;210.87;;;;;;;1.02;100.00;103158.97;4980777;28;20430;-45
2023/03/01 01:08:45;;;;;;;210.87;199.47;;;;;;;1.00;100.00;103160.84;4981220;28;20430;-44
2023/03/01 01:11:13;;;;;;;212.63;199.77;;;;;;;0.99;100.00;103163.53;4981359;28;20451;-43
2023/03/01 01:13:42;;;;;;;213.17;198.10;;;;;;;0.98;100.00;103167.09;4980794;28;20471;-43
2023/03/01 01:16:09;;;;;;;217.57;204.23;;;;;;;0.96;100.00;103158.41;4980627;28;20490;-48
2023/03/01 01:18:37;;;;;;;217.47;204.20;;;;;;;0.95;100.00;103148.84;4981116;28;20581;-44
2023/03/01 01:21:08;;;;;;;212.10;199.40;;;;;;;0.96;100.00;103150.53;4981560;28;20445;-45
2023/03/01 01:23:37;;;;;;;212.53;195.47;;;;;;;0.96;100.00;103145.28;4980978;28;20466;-50
2023/03/01 01:26:07;;;;;;;211.87;192.67;;;;;;;0.93;100.00;103146.28;4980628;28;20435;-46
2023/03/01 01:28:35;;;;;;;217.43;198.23;;;;;;;0.93;100.00;103142.81;4980944;28;20443;-48
2023/03/01 01:31:02;;;;;;;219.17;200.20;;;;;;;0.92;100.00;103149.88;4980393;28;20490;-46
2023/03/01 01:33:30;;;;;;;233.40;209.77;;;;;;;0.88;100.00;103145.69;4980182;28;20493;-44
2023/03/01 01:35:58;;;;;;;208.17;196.67;;;;;;;0.91;100.00;103139.41;4979743;28;20433;-43
2023/03/01 01:38:27;;;;;;;212.50;191.10;;;;;;;0.89;100.00;103138.66;4980841;28;20465;-45
2023/03/01 01:40:55;;;;;;;259.73;198.20;;;;;;;0.87;100.00;103132.59;4980265;28;20825;-43
2023/03/01 01:43:25;;;;;;;204.47;191.40;;;;;;;0.85;100.00;103135.31;4980508;28;20462;-45
2023/03/01 01:45:57;;;;;;;192.57;180.53;;;;;;;0.88;100.00;103131.69;4981096;28;20442;-46
2023/03/01 01:48:40;;;;;;;212.40;196.47;;;;;;;0.86;100.00;103125.66;4981065;28;20454;-45
2023/03/01 01:51:12;;;;;;;222.70;193.80;;;;;;;0.86;100.00;103129.16;4980943;28;20466;-44
2023/03/01 01:53:44;;;;;;;191.23;179.33;;;;;;;0.87;100.00;103117.69;4980418;28;20478;-48
2023/03/01 01:56:14;;;;;;;197.37;182.80;;;;;;;0.88;100.00;103121.19;4980590;28;20438;-49
2023/03/01 01:58:43;;;;;;;213.73;196.43;;;;;;;0.90;100.00;103120.16;4981325;28;20438;-46
2023/03/01 02:01:11;;;;;;;240.77;207.07;;;;;;;0.90;100.00;103108.81;4981258;28;20459;-49
2023/03/01 02:03:43;;;;;;;282.80;195.07;;;;;;;0.91;100.00;103113.16;4980167;28;20466;-43
2023/03/01 02:06:17;;;;;;;208.97;192.40;;;;;;;0.92;100.00;103112.22;4979976;28;20431;-44
2023/03/01 02:08:49;;;;;;;207.97;191.93;;;;;;;0.96;100.00;103108.50;4980419;28;20601;-45
2023/03/01 02:11:19;;;;;;;192.57;182.40;;;;;;;0.97;100.00;103097.94;4981585;28;20462;-44
2023/03/01 02:13:48;;;;;;;214.23;200.00;;;;;;;1.00;100.00;103104.81;4979594;28;20533;-44
2023/03/01 02:16:17;;;;;;;217.00;203.13;;;;;;;1.00;100.00;103099.56;4980523;28;20431;-43
2023/03/01 02:18:46;;;;;;;234.87;214.10;;;;;;;1.00;100.00;103099.56;4980695;28;20431;-48
2023/03/01 02:21:33;;;;;;;205.03;191.60;;;;;;;1.02;100.00;103108.19;4980198;28;20509;-44
2023/03/01 02:24:16;;;;;;;211.17;198.37;;;;;;;1.06;100.00;103105.34;4977844;28;20471;-43
2023/03/01 02:26:52;;;;;;;206.00;195.57;;;;;;;1.09;100.00;103101.72;4980474;28;20434;-47
2023/03/01 02:29:21;;;;;;;314.73;222.60;;;;;;;1.05;100.00;103098.38;4980083;28;21000;-43
2023/03/01 02:31:52;;;;;;;220.07;204.80;;;;;;;1.04;100.00;103098.47;4979357;28;20462;-44
2023/03/01 02:34:24;;;;;;;226.77;210.57;;;;;;;1.02;100.00;103097.69;4980066;28;20880;-49
2023/03/01 02:36:57;;;;;;;214.50;202.93;;;;;;;1.00;100.00;103099.56;4980130;28;20793;-44
2023/03/01 02:39:27;;;;;;;216.73;199.70;;;;;;;1.00;100.00;103095.16;4979786;28;20435;-43
2023/03/01 02:41:57;;;;;;;225.57;213.20;;;;;;;1.00;100.00;103086.41;4979426;28;21048;-43
2023/03/01 02:44:26;;;;;;;224.77;209.80;;;;;;;0.96;100.00;103090.13;4979982;28;20797;-46
2023/03/01 02:46:58;;;;;;;194.87;186.97;;;;;;;0.94;100.00;103079.69;4980138;28;20455;-44
2023/03/01 02:49:27;;;;;;;210.53;202.03;;;;;;;0.93;100.00;103085.00;4979556;28;20431;-46
2023/03/01 02:52:22;;;;;;;215.50;201.60;;;;;;;0.91;100.00;103086.88;4978730;28;20466;-43
2023/03/01 02:54:57;;;;;;;227.90;210.47;;;;;;;0.84;100.00;103086.31;4979569;28;20427;-45
2023/03/01 02:57:27;;;;;;;213.77;198.13;;;;;;;0.84;100.00;103090.72;4978784;28;20449;-44
2023/03/01 02:59:58;;;;;;;219.03;206.00;;;;;;;0.80;100.00;103086.56;4979796;28;20521;-45
2023/03/01 03:02:36;;;;;;;197.67;190.27;;;;;;;0.76;100.00;103085.88;4978784;28;20497;-45
2023/03/01 03:05:08;;;;;;;200.50;186.20;;;;;;;0.75;100.00;103078.06;4978750;28;20435;-44
2023/03/01 03:07:37;;;;;;;216.37;200.30;;;;;;;0.71;100.00;103074.75;4979545;28;20466;-45
2023/03/01 03:10:08;;;;;;;214.57;199.30;;;;;;;0.68;100.00;103071.44;4979613;28;20430;-48
2023/03/01 03:12:36;;;;;;;204.53;193.43;;;;;;;0.70;100.00;103069.56;4979195;28;20493;-46
2023/03/01 03:15:08;;;;;;;194.47;184.57;;;;;;;0.68;100.00;103064.41;4979162;28;20450;-44
2023/03/01 03:17:37;;;;;;;197.30;188.50;;;;;;;0.67;100.00;103059.22;4979092;28;20853;-43
2023/03/01 03:20:10;;;;;;;200.70;190.80;;;;;;;0.67;100.00;103072.34;4979881;28;20441;-45
2023/03/01 03:22:38;;;;;;;215.43;200.83;;;;;;;0.61;100.00;103072.66;4978755;28;20475;-46
2023/03/01 03:25:10;;;;;;;217.80;203.07;;;;;;;0.59;100.00;103071.88;4979315;28;20439;-49
2023/03/01 03:27:38;;;;;;;216.73;199.70;;;;;;;0.57;100.00;103070.16;4979316;28;20478;-44
2023/03/01 03:30:12;;;;;;;221.43;202.13;;;;;;;0.55;100.00;103061.53;4979268;28;20427;-48
2023/03/01 03:32:39;;;;;;;208.43;196.10;;;;;;;0.55;100.00;103056.28;4979169;28;20913;-44
2023/03/01 03:35:09;;;;;;;217.00;199.23;;;;;;;0.57;100.00;103064.06;4979314;28;20437;-44
2023/03/01 03:40:22;;;;;;;220.50;204.33;;;;;;;0.57;100.00;103051.78;4979153;28;20458;-49
2023/03/01 03:42:50;;;;;;;216.27;201.77;;;;;;;0.55;100.00;103052.81;4977798;28;20471;-44
2023/03/01 03:45:20;;;;;;;223.07;208.37;;;;;;;0.51;100.00;103044.22;4978545;28;20435;-47
2023/03/01 03:47:47;;;;;;;212.90;201.23;;;;;;;0.53;100.00;103044.16;4978972;28;20449;-44
2023/03/01 03:50:17;;;;;;;239.10;213.43;;;;;;;0.54;100.00;103041.44;4978930;28;20438;-45
2023/03/01 03:52:44;;;;;;;210.80;198.03;;;;;;;0.57;100.00;103046.53;4978068;28;20478;-47
2023/03/01 03:55:13;;;;;;;215.47;203.63;;;;;;;0.58;100.00;103044.78;4979109;28;21020;-48
2023/03/01 03:57:42;;;;;;;214.90;200.50;;;;;;;0.61;100.00;103043.75;4979463;28;20426;-44
2023/03/01 04:00:12;;;;;;;219.90;202.33;;;;;;;0.59;100.00;103035.97;4979632;28;20439;-47
2023/03/01 04:02:43;;;;;;;221.97;204.47;;;;;;;0.54;100.00;103033.56;4978849;28;20478;-51
2023/03/01 04:05:12;;;;;;;229.53;203.23;;;;;;;0.49;100.00;103034.72;4978435;28;20431;-49
2023/03/01 04:07:40;;;;;;;209.40;194.10;;;;;;;0.46;100.00;103030.47;4979587;28;20442;-45
2023/03/01 04:10:14;;;;;;;204.27;190.07;;;;;;;0.46;100.00;103033.09;4979659;28;20439;-43
2023/03/01 04:12:43;;;;;;;244.30;205.80;;;;;;;0.37;100.00;103036.19;4979676;28;20532;-48
2023/03/01 04:15:15;;;;;;;298.70;204.10;;;;;;;0.35;100.00;103034.56;4982707;28;20470;-45
2023/03/01 04:17:46;;;;;;;203.10;189.40;;;;;;;0.35;100.00;103031.94;4983293;28;20497;-47
2023/03/01 04:20:17;;;;;;;203.43;188.60;;;;;;;0.27;100.00;103021.78;4983191;28;20517;-46
2023/03/01 04:22:46;;;;;;;193.87;176.77;;;;;;;0.26;100.00;103035.88;4983097;28;20482;-48
2023/03/01 04:25:15;;;;;;;248.37;184.00;;;;;;;0.22;100.00;103033.44;4982920;28;20525;-44
2023/03/01 04:27:42;;;;;;;194.07;175.93;;;;;;;0.17;100.00;103033.69;4982548;28;20431;-47
2023/03/01 04:30:11;;;;;;;181.67;171.53;;;;;;;0.16;100.00;103036.38;4982305;28;20438;-48
2023/03/01 04:32:39;;;;;;;185.80;173.87;;;;;;;0.15;100.00;103030.25;4982756;28;20474;-47
2023/03/01 04:35:09;;;;;;;179.53;168.30;;;;;;;0.15;100.00;103035.50;4982610;28;20485;-46
2023/03/01 04:37:36;;;;;;;186.37;174.40;;;;;;;0.14;100.00;103035.59;4983473;28;20426;-49
2023/03/01 04:40:12;;;;;;;176.37;167.53;;;;;;;0.13;100.00;103031.25;4983621;28;20458;-46
2023/03/01 04:42:40;;;;;;;176.10;167.07;;;;;;;0.18;100.00;103042.41;4982571;28;20478;-44
2023/03/01 04:45:12;;;;;;;169.23;161.63;;;;;;;0.15;100.00;103032.06;4982647;28;20441;-49
2023/03/01 04:47:42;;;;;;;181.70;170.33;;;;;;;0.17;100.00;103038.06;4982057;28;20837;-47
2023/03/01 04:50:14;;;;;;;176.10;166.50;;;;;;;0.18;100.00;103031.91;4982774;28;20458;-47
2023/03/01 04:52:42;;;;;;;180.03;163.73;;;;;;;0.18;100.00;103038.00;4979600;28;20471;-45
2023/03/01 04:55:11;;;;;;;167.10;160.23;;;;;;;0.21;100.00;103034.38;4981606;28;20478;-48
2023/03/01 04:57:39;;;;;;;176.67;161.90;;;;;;;0.14;100.00;103030.34;4981942;28;20463;-46
2023/03/01 05:00:19;;;;;;;171.10;160.83;;;;;;;0.11;100.00;103033.97;4981956;28;20947;-44
2023/03/01 05:02:53;;;;;;;172.00;163.60;;;;;;;0.13;100.00;103028.63;4981649;28;20475;-45
2023/03/01 05:05:26;;;;;;;193.40;165.93;;;;;;;0.11;100.00;103033.97;4981355;28;20833;-45
2023/03/01 05:07:55;;;;;;;183.27;166.50;;;;;;;0.03;100.00;103025.59;4981510;28;20435;-47
2023/03/01 05:10:24;;;;;;;163.40;153.83;;;;;;;0.06;100.00;103029.88;4981758;28;20786;-46
2023/03/01 05:12:53;;;;;;;159.67;149.90;;;;;;;0.04;100.00;103029.94;4980888;28;20490;-44
2023/03/01 05:15:21;;;;;;;207.30;164.57;;;;;;;0.00;100.00;103026.59;4980410;28;20502;-43
2023/03/01 05:17:49;;;;;;;168.40;154.07;;;;;;;0.00;100.00;103036.28;4980963;28;20438;-45
2023/03/01 05:20:17;;;;;;;158.80;146.80;;;;;;;-0.01;100.00;103026.69;4980897;28;20474;-43
2023/03/01 05:22:46;;;;;;;154.50;142.20;;;;;;;-0.02;100.00;103027.59;4980306;28;20529;-46
2023/03/01 05:25:14;;;;;;;202.03;155.57;;;;;;;-0.10;100.00;103029.75;4979557;28;20446;-44
2023/03/01 05:27:42;;;;;;;153.90;144.33;;;;;;;-0.13;100.00;103038.63;4980547;28;20445;-44
2023/03/01 05:30:14;;;;;;;160.37;148.87;;;;;;;-0.10;100.00;103042.88;4980436;28;20439;-43
2023/03/01 05:32:44;;;;;;;159.03;146.07;;;;;;;-0.09;100.00;103048.03;4979998;28;20490;-47
2023/03/01 05:35:14;;;;;;;159.27;146.10;;;;;;;-0.09;100.00;103053.25;4980657;28;20489;-44
2023/03/01 05:37:43;;;;;;;157.97;144.60;;;;;;;-0.05;100.00;103052.22;4980298;28;20446;-44
2023/03/01 05:40:16;;;;;;;179.53;149.27;;;;;;;-0.12;100.00;103045.53;4980287;28;20434;-43
2023/03/01 05:42:44;;;;;;;157.87;142.83;;;;;;;-0.09;100.00;103049.81;4979787;28;20550;-44
2023/03/01 05:45:13;;;;;;;136.87;129.30;;;;;;;-0.08;100.00;103046.25;4980047;28;20441;-45
2023/03/01 05:47:43;;;;;;;145.13;135.53;;;;;;;-0.08;100.00;103043.63;4980639;28;20442;-47
2023/03/01 05:50:13;;;;;;;141.77;133.70;;;;;;;-0.05;100.00;103040.88;4980531;28;20530;-47
2023/03/01 05:52:41;;;;;;;140.80;129.17;;;;;;;-0.07;100.00;103040.94;4979401;28;20470;-43
2023/03/01 05:55:10;;;;;;;154.63;141.33;;;;;;;-0.09;100.00;103042.78;4979313;28;20471;-45
2023/03/01 05:57:38;;;;;;;142.20;132.60;;;;;;;-0.07;100.00;103037.47;4980389;28;20470;-47
2023/03/01 06:00:08;;;;;;;139.17;128.37;;;;;;;-0.11;100.00;103041.16;4980303;28;20536;-44
2023/03/01 06:02:35;;;;;;;137.57;127.73;;;;;;;-0.17;100.00;103046.69;4979710;28;20521;-48
2023/03/01 06:05:03;;;;;;;123.60;116.10;;;;;;;-0.18;100.00;103053.69;4980576;28;20485;-44
2023/03/01 06:07:32;;;;;;;177.47;134.83;;;;;;;-0.24;100.00;103058.41;4980403;28;20446;-43
2023/03/01 06:09:59;;;;;;;127.47;118.00;;;;;;;-0.27;100.00;103055.91;4980291;28;20442;-46
2023/03/01 06:12:31;;;;;;;128.07;117.03;;;;;;;-0.27;100.00;103055.91;4980224;28;20567;-43
2023/03/01 06:15:00;;;;;;;127.20;119.93;;;;;;;-0.30;100.00;103050.81;4980274;28;20478;-44
2023/03/01 06:17:30;;;;;;;152.10;121.70;;;;;;;-0.38;100.00;103051.16;4980264;28;20472;-43
2023/03/01 06:19:58;;;;;;;121.77;114.93;;;;;;;-0.40;100.00;103052.13;4981065;28;20446;-43
2023/03/01 06:22:25;;;;;;;118.93;111.63;;;;;;;-0.40;100.00;103063.47;4980090;28;20455;-50
2023/03/01 06:24:53;;;;;;;121.73;110.13;;;;;;;-0.42;100.00;103051.38;4980005;28;20431;-45
2023/03/01 06:27:20;;;;;;;124.53;111.93;;;;;;;-0.41;100.00;103048.66;4980332;28;20439;-46
2023/03/01 06:29:48;;;;;;;105.93;99.00;;;;;;;-0.40;100.00;103049.53;4980414;28;20960;-43
2023/03/01 06:32:17;;;;;;;105.60;98.13;;;;;;;-0.40;100.00;103057.38;4979566;28;20467;-44
2023/03/01 06:34:46;;;;;;;108.13;99.73;;;;;;;-0.37;100.00;103050.22;4980154;28;20474;-44
2023/03/01 06:37:14;;;;;;;98.30;91.90;;;;;;;-0.37;100.00;103046.75;4979984;28;20805;-45
2023/03/01 06:39:41;;;;;;;97.37;91.80;;;;;;;-0.36;100.00;103045.84;4980027;28;20439;-46
2023/03/01 06:42:10;;;;;;;101.13;95.17;;;;;;;-0.31;100.00;103043.84;4979579;28;20458;-45
2023/03/01 06:44:38;;;;;;;93.83;87.63;;;;;;;-0.30;100.00;103041.16;4979790;28;20442;-46
2023/03/01 06:47:06;;;;;;;85.90;79.57;;;;;;;-0.24;100.00;103043.50;4979900;28;20442;-43
2023/03/01 06:49:35;;;;;;;92.00;84.30;;;;;;;-0.20;100.00;103041.59;4979755;28;20887;-43
2023/03/01 06:52:03;;;;;;;85.23;80.67;;;;;;;-0.16;100.00;103044.00;4978831;28;20463;-45
2023/03/01 06:54:31;;;;;;;84.57;79.97;;;;;;;-0.12;100.00;103045.53;4979294;28;20449;-46
2023/03/01 06:56:58;;;;;;;87.80;83.60;;;;;;;-0.06;100.00;103052.31;4979150;28;20443;-44
2023/03/01 06:59:26;;;;;;;80.40;76.40;;;;;;;0.04;100.00;103039.56;4978961;28;20797;-43
2023/03/01 07:01:54;;;;;;;94.43;84.87;;;;;;;0.09;100.00;103053.34;4978640;28;20802;-46
2023/03/01 07:04:21;;;;;;;152.63;90.40;;;;;;;0.08;100.00;103041.13;4979072;28;20435;-44
2023/03/01 07:06:54;;;;;;;97.13;89.03;;;;;;;0.13;100.00;103039.13;4978923;28;20443;-47
2023/03/01 07:09:23;;;;;;;91.20;86.47;;;;;;;0.21;100.00;103044.88;4978969;28;20431;-46
2023/03/01 07:11:50;;;;;;;93.53;88.40;;;;;;;0.32;100.00;103045.22;4978242;28;20550;-45
2023/03/01 07:14:19;;;;;;;87.80;81.13;;;;;;;0.40;100.00;103045.69;4978579;28;20960;-48
2023/03/01 07:16:47;;;;;;;88.97;83.30;;;;;;;0.47;100.00;103045.31;4978912;28;20479;-46
2023/03/01 07:19:15;;;;;;;83.90;77.93;;;;;;;0.53;100.00;103050.25;4979410;28;21091;-43
2023/03/01 07:21:42;;;;;;;78.37;73.07;;;;;;;0.59;100.00;103049.09;4979089;28;20969;-44
2023/03/01 07:24:12;;;;;;;74.37;68.70;;;;;;;0.64;100.00;103059.38;4978333;28;20853;-43
2023/03/01 07:26:39;;;;;;;78.07;72.37;;;;;;;0.61;100.00;103049.88;4978495;28;20438;-45
2023/03/01 07:29:08;;;;;;;85.70;79.00;;;;;;;0.59;100.00;103058.75;4978274;28;20438;-44
2023/03/01 07:31:36;;;;;;;76.33;71.60;;;;;;;0.39;100.00;103054.47;4978631;28;20535;-44
2023/03/01 07:34:04;;;;;;;74.97;69.73;;;;;;;0.13;100.00;103055.72;4978223;28;20475;-44
2023/03/01 07:36:32;;;;;;;69.20;64.03;;;;;;;0.05;100.00;103068.38;4978625;28;20475;-46
2023/03/01 07:39:02;;;;;;;64.13;60.23;;;;;;;0.00;100.00;103062.50;4978348;28;20435;-44
2023/03/01 07:41:31;;;;;;;61.40;57.63;;;;;;;0.02;100.00;103065.03;4978793;28;21004;-47
2023/03/01 07:43:59;;;;;;;58.77;55.93;;;;;;;0.00;100.00;103062.50;4978010;28;20493;-44
2023/03/01 07:46:27;;;;;;;53.77;51.20;;;;;;;0.14;100.00;103057.44;4978631;28;20861;-44
2023/03/01 07:48:54;;;;;;;54.13;51.17;;;;;;;0.38;100.00;103055.41;4978815;28;20497;-45
2023/03/01 07:51:22;;;;;;;52.73;50.33;;;;;;;0.33;100.00;103063.50;4978204;28;20454;-48
2023/03/01 07:53:50;;;;;;;46.67;44.43;;;;;;;0.07;100.00;103063.03;4977865;28;20467;-44
2023/03/01 07:56:18;;;;;;;45.93;43.20;;;;;;;0.11;100.00;103065.47;4978426;28;20478;-49
2023/03/01 07:58:47;;;;;;;45.50;42.20;;;;;;;0.15;100.00;103063.53;4978615;28;20522;-45
2023/03/01 08:01:19;;;;;;;38.57;36.87;;;;;;;0.16;100.00;103065.22;4978759;28;20546;-46
2023/03/01 08:03:47;;;;;;;40.10;37.03;;;;;;;0.25;100.00;103059.53;4978267;28;20477;-44
2023/03/01 08:06:17;;;;;;;37.73;35.63;;;;;;;0.48;100.00;103064.50;4978782;28;20518;-47
2023/03/01 08:08:45;;;;;;;40.20;36.00;;;;;;;0.55;100.00;103071.19;4979133;28;21019;-43
2023/03/01 08:11:15;;;;;;;35.73;33.43;;;;;;;0.59;100.00;103062.22;4978026;28;20443;-46
2023/03/01 08:13:43;;;;;;;34.00;32.37;;;;;;;0.79;100.00;103069.09;4978057;28;20475;-44
2023/03/01 08:16:14;;;;;;;35.80;34.00;;;;;;;0.92;100.00;103067.56;4979054;28;20478;-44
2023/03/01 08:18:43;;;;;;;34.03;32.10;;;;;;;0.99;100.00;103068.94;4979197;28;20586;-46
2023/03/01 08:21:12;;;;;;;31.17;29.43;;;;;;;1.12;100.00;103064.78;4978883;28;20455;-45
2023/03/01 08:23:40;;;;;;;29.27;27.73;;;;;;;1.08;100.00;103065.84;4977678;28;20852;-47
2023/03/01 08:26:11;;;;;;;31.23;29.40;;;;;;;1.00;100.00;103070.66;4978920;28;20439;-48
2023/03/01 08:28:40;;;;;;;28.73;27.43;;;;;;;1.06;100.00;103071.19;4979038;28;20443;-44
2023/03/01 08:31:17;;;;;;;30.60;29.00;;;;;;;1.15;100.00;103063.75;4978256;28;20422;-49
2023/03/01 08:33:50;;;;;;;29.27;27.67;;;;;;;1.32;100.00;103061.94;4977879;28;20521;-45
2023/03/01 08:36:18;;;;;;;29.90;28.00;;;;;;;1.31;100.00;103057.63;4977768;28;20489;-46
2023/03/01 08:38:46;;;;;;;27.03;25.80;;;;;;;1.51;100.00;103069.72;4978160;28;20431;-46
2023/03/01 08:41:14;;;;;;;28.70;27.30;;;;;;;1.47;100.00;103061.13;4978772;28;21067;-47
2023/03/01 08:43:42;;;;;;;28.20;26.60;;;;;;;1.30;100.00;103055.06;4977601;28;20494;-49
2023/03/01 08:46:10;;;;;;;29.30;27.80;;;;;;;1.41;100.00;103052.72;4978119;28;20435;-44
2023/03/01 08:48:40;;;;;;;28.30;27.00;;;;;;;1.55;100.00;103058.13;4979041;28;20435;-45
2023/03/01 08:51:09;;;;;;;27.43;26.30;;;;;;;1.39;100.00;103052.81;4978530;28;20450;-49
2023/03/01 08:53:36;;;;;;;27.63;26.43;;;;;;;1.25;100.00;103052.69;4978108;28;20535;-45
2023/03/01 08:56:05;;;;;;;26.60;25.30;;;;;;;1.14;100.00;103044.50;4977866;28;20525;-47
2023/03/01 08:58:33;;;;;;;26.73;25.53;;;;;;;1.30;100.00;103058.56;4978393;28;20485;-45
2023/03/01 09:01:01;;;;;;;27.33;25.93;;;;;;;1.23;100.00;103062.41;4981757;28;20462;-49
2023/03/01 09:03:29;;;;;;;27.27;25.93;;;;;;;1.17;100.00;103060.13;4980593;28;20474;-45
2023/03/01 09:06:04;;;;;;;26.33;25.13;;;;;;;1.40;100.00;103058.94;4981828;28;20438;-47
2023/03/01 09:08:34;;;;;;;26.03;24.73;;;;;;;1.62;100.00;103059.47;4981637;28;20468;-45
2023/03/01 09:11:03;;;;;;;25.77;24.67;;;;;;;1.58;100.00;103056.16;4981187;28;21259;-44
2023/03/01 09:13:31;;;;;;;26.60;25.30;;;;;;;1.54;100.00;103052.00;4980853;28;20462;-46
2023/03/01 09:16:00;;;;;;;27.10;25.90;;;;;;;1.59;100.00;103049.09;4980868;28;20442;-46
2023/03/01 09:18:28;;;;;;;25.20;24.20;;;;;;;1.76;100.00;103042.94;4980835;28;20445;-48
2023/03/01 09:21:07;;;;;;;27.13;25.73;;;;;;;1.97;100.00;103033.88;4981378;28;20447;-44
2023/03/01 09:23:36;;;;;;;26.77;25.60;;;;;;;1.88;100.00;103024.69;4980481;28;20462;-47
2023/03/01 09:26:03;;;;;;;26.90;25.60;;;;;;;1.92;100.00;103030.63;4980293;28;20439;-48
2023/03/01 09:28:31;;;;;;;27.17;25.87;;;;;;;1.95;100.00;103033.94;4981172;28;20506;-45
2023/03/01 09:31:00;;;;;;;26.90;25.70;;;;;;;2.10;100.00;103033.09;4981579;28;20450;-50
2023/03/01 09:33:28;;;;;;;26.60;25.30;;;;;;;2.01;100.00;103041.50;4980142;28;20467;-47
2023/03/01 09:35:59;;;;;;;26.83;25.53;;;;;;;2.01;100.00;103035.38;4980366;28;20431;-44
2023/03/01 09:38:29;;;;;;;26.33;25.03;;;;;;;2.09;100.00;103046.34;4980947;28;20439;-46
2023/03/01 09:40:57;;;;;;;26.60;25.20;;;;;;;2.32;100.00;103048.53;4980546;28;20439;-47
2023/03/01 09:43:31;;;;;;;26.20;25.00;;;;;;;2.59;100.00;103061.91;4979914;28;21003;-43
2023/03/01 09:46:04;;;;;;;27.60;26.30;;;;;;;2.77;100.00;103064.31;4980035;28;20441;-46
2023/03/01 09:48:38;;;;;;;27.53;26.27;;;;;;;2.93;100.00;103066.88;4979822;28;20469;-44
2023/03/01 09:51:13;;;;;;;28.40;27.00;;;;;;;3.01;100.00;103071.72;4980144;28;20963;-47
2023/03/01 09:53:42;;;;;;;28.37;27.07;;;;;;;2.69;100.00;103070.94;4980148;28;20478;-47
2023/03/01 09:56:20;;;;;;;26.70;25.50;;;;;;;2.55;100.00;103076.19;4980220;28;20481;-44
2023/03/01 09:58:54;;;;;;;27.37;26.07;;;;;;;2.52;100.00;103085.09;4979536;28;20852;-45
2023/03/01 10:01:34;;;;;;;28.67;27.17;;;;;;;2.48;100.00;103088.03;4980259;28;20883;-46
2023/03/01 10:04:13;;;;;;;26.70;25.30;;;;;;;2.52;100.00;103084.25;4979604;28;20475;-47
2023/03/01 10:06:46;;;;;;;26.47;25.07;;;;;;;2.41;100.00;103086.66;4979786;28;20438;-44
2023/03/01 10:09:17;;;;;;;27.53;25.60;;;;;;;2.37;100.00;103085.97;4980402;28;20445;-46
2023/03/01 10:11:49;;;;;;;26.23;24.93;;;;;;;2.52;100.00;103074.56;4979874;28;20455;-44
2023/03/01 10:14:33;;;;;;;26.23;24.80;;;;;;;2.73;100.00;103075.97;4999159;28;20430;-44
2023/03/01 10:17:04;;;;;;;27.20;25.70;;;;;;;3.00;100.00;103075.28;4999577;28;20477;-45
2023/03/01 10:19:34;;;;;;;26.07;24.77;;;;;;;3.11;100.00;103078.97;4999400;28;20434;-45
2023/03/01 10:22:10;;;;;;;27.77;26.23;;;;;;;3.05;100.00;103083.75;4999084;28;20480;-46
2023/03/01 10:24:39;;;;;;;28.50;26.97;;;;;;;3.11;100.00;103086.03;4999065;28;20434;-44
2023/03/01 10:27:12;;;;;;;28.63;27.03;;;;;;;3.16;100.00;103095.38;4999432;28;20800;-47
2023/03/01 10:29:46;;;;;;;27.73;26.33;;;;;;;3.44;100.00;103091.06;4999225;28;20433;-45
2023/03/01 10:32:15;;;;;;;27.80;26.30;;;;;;;3.59;100.00;103080.41;4998059;28;20472;-44
2023/03/01 10:34:42;;;;;;;27.50;26.00;;;;;;;3.59;100.00;103084.84;4998871;28;20434;-44
2023/03/01 10:37:13;;;;;;;27.43;25.83;;;;;;;3.74;100.00;103089.19;4998690;28;20481;-44
2023/03/01 10:39:58;;;;;;;25.90;24.70;;;;;;;3.56;100.00;103066.56;4998525;28;20434;-47
2023/03/01 10:42:32;;;;;;;24.77;23.63;;;;;;;3.76;100.00;103082.84;4998652;28;20480;-46
2023/03/01 10:45:15;;;;;;;25.77;24.47;;;;;;;3.95;100.00;103068.50;4998694;28;20434;-44
2023/03/01 10:47:42;;;;;;;25.77;24.57;;;;;;;3.88;100.00;103076.00;4998901;28;20438;-44
2023/03/01 10:50:20;;;;;;;26.57;24.93;;;;;;;3.84;100.00;103072.69;4998994;28;20436;-44
2023/03/01 10:52:58;;;;;;;25.47;24.17;;;;;;;4.05;100.00;103062.56;4997597;28;20457;-44
2023/03/01 10:55:34;;;;;;;27.37;25.77;;;;;;;4.27;100.00;103062.84;4998692;28;20422;-44
2023/03/01 10:58:18;;;;;;;27.07;25.87;;;;;;;4.16;100.00;103057.44;4998247;28;20469;-44
2023/03/01 11:00:48;;;;;;;26.77;25.47;;;;;;;3.99;100.00;103062.94;4998525;28;20518;-44
2023/03/01 11:03:21;;;;;;;24.97;23.87;;;;;;;4.04;100.00;103065.28;4997928;28;20968;-48
2023/03/01 11:05:59;;;;;;;24.73;23.50;;;;;;;4.22;100.00;103064.97;4997992;28;20434;-44
2023/03/01 11:08:32;;;;;;;25.20;24.10;;;;;;;4.06;100.00;103071.34;4998615;28;20414;-45
2023/03/01 11:11:13;;;;;;;25.40;24.30;;;;;;;4.26;100.00;103061.19;4998297;28;20422;-45
2023/03/01 11:13:51;;;;;;;25.30;24.07;;;;;;;4.43;100.00;103058.28;4997523;28;20461;-43
2023/03/01 11:16:29;;;;;;;25.80;24.60;;;;;;;4.62;100.00;103047.34;4998388;28;20437;-46